createdAt,value
2023-03-19T00:00:31.005Z,93.95
2023-03-19T00:02:58.233Z,93.14
2023-03-19T00:05:25.555Z,92.26
2023-03-19T00:07:52.615Z,95.79
2023-03-19T00:10:19.625Z,94.63
2023-03-19T00:12:47.572Z,91.72
2023-03-19T00:15:15.518Z,90.39
2023-03-19T00:17:43.444Z,92.37
2023-03-19T00:20:12.523Z,90.03
2023-03-19T00:22:40.389Z,89.30
2023-03-19T00:25:08.758Z,87.23
2023-03-19T00:27:37.553Z,89.01
2023-03-19T00:30:06.609Z,97.08
2023-03-19T00:32:34.406Z,93.46
2023-03-19T00:35:02.123Z,89.80
2023-03-19T00:37:29.160Z,92.95
2023-03-19T00:39:56.344Z,91.78
2023-03-19T00:42:23.544Z,91.89
2023-03-19T00:44:51.174Z,93.43
2023-03-19T00:47:18.276Z,94.61
2023-03-19T00:49:45.388Z,94.52
2023-03-19T00:52:12.448Z,92.33
2023-03-19T00:54:40.676Z,93.08
2023-03-19T00:57:08.527Z,92.32
2023-03-19T00:59:35.581Z,92.27
2023-03-19T01:02:03.858Z,91.66
2023-03-19T01:04:30.909Z,93.37
2023-03-19T01:09:26.996Z,97.09
2023-03-19T01:11:54.162Z,98.70
2023-03-19T01:14:21.628Z,99.43
2023-03-19T01:16:48.885Z,100.00
2023-03-19T01:19:16.578Z,99.61
2023-03-19T01:21:46.624Z,99.40
2023-03-19T01:24:17.787Z,99.01
2023-03-19T01:26:47.760Z,95.38
2023-03-19T01:29:26.243Z,94.29
2023-03-19T01:31:56.152Z,96.34
2023-03-19T01:34:41.934Z,93.85
2023-03-19T01:37:11.168Z,94.20
2023-03-19T01:39:39.405Z,95.77
2023-03-19T01:42:10.578Z,99.53
2023-03-19T01:44:48.114Z,98.35
2023-03-19T01:47:38.404Z,100.00
2023-03-19T01:50:28.131Z,100.00
2023-03-19T01:53:17.578Z,99.03
2023-03-19T01:56:13.011Z,95.89
2023-03-19T01:59:04.999Z,96.76
2023-03-19T02:02:06.589Z,93.99
2023-03-19T02:04:36.975Z,95.43
2023-03-19T02:07:05.565Z,96.80
2023-03-19T02:09:33.286Z,95.46
2023-03-19T02:12:02.175Z,96.86
2023-03-19T02:14:29.888Z,94.52
2023-03-19T02:16:57.128Z,94.28
2023-03-19T02:19:36.342Z,100.00
2023-03-19T02:22:05.264Z,97.15
2023-03-19T02:25:01.768Z,98.39
2023-03-19T02:27:29.579Z,99.35
2023-03-19T02:29:56.537Z,98.97
2023-03-19T02:32:24.290Z,100.00
2023-03-19T02:34:51.738Z,100.00
2023-03-19T02:37:28.446Z,100.00
2023-03-19T02:40:05.584Z,100.00
2023-03-19T02:42:32.655Z,100.00
2023-03-19T02:44:59.789Z,98.93
2023-03-19T02:47:27.625Z,97.25
2023-03-19T02:49:55.339Z,94.74
2023-03-19T02:52:23.246Z,96.55
2023-03-19T02:54:50.557Z,93.55
2023-03-19T02:57:18.701Z,94.26
2023-03-19T02:59:46.034Z,95.24
2023-03-19T03:02:13.700Z,96.03
2023-03-19T03:04:41.972Z,96.99
2023-03-19T03:07:09.852Z,96.43
2023-03-19T03:09:36.843Z,99.13
2023-03-19T03:12:04.599Z,97.17
2023-03-19T03:14:31.802Z,100.00
2023-03-19T03:16:58.840Z,100.00
2023-03-19T03:19:26.006Z,99.53
2023-03-19T03:21:53.101Z,100.00
2023-03-19T03:24:20.184Z,100.00
2023-03-19T03:26:47.212Z,100.00
2023-03-19T03:29:15.639Z,100.00
2023-03-19T03:31:42.876Z,100.00
2023-03-19T03:34:10.273Z,98.55
2023-03-19T03:36:37.682Z,98.60
2023-03-19T03:39:04.998Z,95.81
2023-03-19T03:41:32.306Z,94.17
2023-03-19T03:44:01.347Z,94.23
2023-03-19T03:46:31.755Z,93.63
2023-03-19T03:48:58.840Z,95.73
2023-03-19T03:51:26.092Z,99.52
2023-03-19T03:53:53.175Z,97.55
2023-03-19T03:56:20.324Z,96.16
2023-03-19T03:58:47.784Z,93.45
2023-03-19T04:01:18.543Z,92.44
2023-03-19T04:03:49.715Z,94.68
2023-03-19T04:06:19.871Z,97.11
2023-03-19T04:08:52.004Z,97.07
2023-03-19T04:11:25.095Z,97.63
2023-03-19T04:13:54.396Z,95.06
2023-03-19T04:16:21.559Z,95.20
2023-03-19T04:18:48.560Z,99.00
2023-03-19T04:21:15.853Z,100.00
2023-03-19T04:23:42.846Z,100.00
2023-03-19T04:26:10.381Z,100.00
2023-03-19T04:28:37.632Z,99.86
2023-03-19T04:31:07.312Z,100.00
2023-03-19T04:33:37.418Z,100.00
2023-03-19T04:36:04.956Z,100.00
2023-03-19T04:38:32.422Z,99.95
2023-03-19T04:40:59.795Z,97.43
2023-03-19T04:43:27.463Z,96.66
2023-03-19T04:45:55.382Z,98.83
2023-03-19T04:48:23.582Z,100.00
2023-03-19T04:50:53.458Z,99.16
2023-03-19T04:53:20.810Z,96.74
2023-03-19T04:55:49.330Z,97.76
2023-03-19T04:58:18.230Z,96.02
2023-03-19T05:04:14.154Z,100.00
2023-03-19T05:06:42.046Z,100.00
2023-03-19T05:09:09.409Z,100.00
2023-03-19T05:11:36.655Z,100.00
2023-03-19T05:14:13.154Z,100.00
2023-03-19T05:16:58.816Z,100.00
2023-03-19T05:19:30.212Z,99.35
2023-03-19T05:21:57.539Z,99.71
2023-03-19T05:24:26.908Z,95.97
2023-03-19T05:26:56.374Z,96.13
2023-03-19T05:29:50.100Z,96.14
2023-03-19T05:32:35.840Z,97.97
2023-03-19T05:35:05.748Z,96.88
2023-03-19T05:37:35.508Z,98.94
2023-03-19T05:40:02.843Z,99.02
2023-03-19T05:42:30.653Z,97.93
2023-03-19T05:44:59.065Z,97.75
2023-03-19T05:47:28.612Z,96.38
2023-03-19T05:49:57.950Z,94.24
2023-03-19T05:52:25.180Z,96.51
2023-03-19T05:54:55.003Z,97.60
2023-03-19T05:57:42.503Z,95.41
2023-03-19T06:00:23.310Z,97.37
2023-03-19T06:02:51.694Z,98.03
2023-03-19T06:05:35.045Z,94.47
2023-03-19T06:08:21.648Z,95.06
2023-03-19T06:11:07.008Z,94.81
2023-03-19T06:13:35.283Z,92.21
2023-03-19T06:16:07.472Z,90.20
2023-03-19T06:18:38.447Z,87.81
2023-03-19T06:21:11.857Z,89.56
2023-03-19T06:23:39.049Z,91.13
2023-03-19T06:26:08.076Z,90.30
2023-03-19T06:28:46.356Z,90.22
2023-03-19T06:31:14.788Z,87.61
2023-03-19T06:33:54.870Z,86.56
2023-03-19T06:36:24.193Z,81.81
2023-03-19T06:38:51.404Z,83.64
2023-03-19T06:41:18.428Z,84.54
2023-03-19T06:43:47.648Z,83.30
2023-03-19T06:46:14.716Z,82.71
2023-03-19T06:48:42.048Z,81.97
2023-03-19T06:51:09.179Z,81.20
2023-03-19T06:53:36.165Z,80.42
2023-03-19T06:56:03.587Z,79.08
2023-03-19T06:58:30.617Z,79.95
2023-03-19T07:00:59.621Z,80.31
2023-03-19T07:03:26.543Z,83.73
2023-03-19T07:05:53.894Z,81.66
2023-03-19T07:08:20.895Z,81.03
2023-03-19T07:10:48.184Z,81.41
2023-03-19T07:13:15.623Z,80.53
2023-03-19T07:15:42.591Z,80.81
2023-03-19T07:18:09.665Z,79.79
2023-03-19T07:20:36.907Z,79.13
2023-03-19T07:23:04.202Z,79.60
2023-03-19T07:25:31.392Z,79.07
2023-03-19T07:27:58.320Z,75.75
2023-03-19T07:30:25.677Z,75.98
2023-03-19T07:32:52.717Z,75.00
2023-03-19T07:35:19.745Z,77.25
2023-03-19T07:37:46.971Z,77.01
2023-03-19T07:40:14.018Z,78.38
2023-03-19T07:42:41.916Z,79.88
2023-03-19T07:45:10.817Z,77.81
2023-03-19T07:47:37.885Z,78.14
2023-03-19T07:50:05.365Z,75.16
2023-03-19T07:52:32.349Z,79.01
2023-03-19T07:54:59.474Z,77.44
2023-03-19T07:57:26.528Z,74.41
2023-03-19T07:59:53.995Z,73.16
2023-03-19T08:02:23.323Z,74.75
2023-03-19T08:04:51.364Z,76.11
2023-03-19T08:07:19.247Z,73.82
2023-03-19T08:09:46.379Z,72.10
2023-03-19T08:12:13.754Z,73.67
2023-03-19T08:14:40.719Z,73.21
2023-03-19T08:17:08.501Z,76.14
2023-03-19T08:19:35.646Z,75.30
2023-03-19T08:22:02.689Z,75.93
2023-03-19T08:24:29.735Z,74.00
2023-03-19T08:26:56.842Z,74.71
2023-03-19T08:29:26.421Z,74.58
2023-03-19T08:31:56.818Z,75.44
2023-03-19T08:34:23.813Z,73.56
2023-03-19T08:36:51.033Z,74.02
2023-03-19T08:39:18.026Z,74.15
2023-03-19T08:41:45.095Z,76.14
2023-03-19T08:44:12.122Z,74.75
2023-03-19T08:46:39.960Z,73.42
2023-03-19T08:49:07.012Z,73.08
2023-03-19T08:51:34.134Z,69.19
2023-03-19T08:54:01.217Z,68.86
2023-03-19T08:56:28.279Z,69.71
2023-03-19T08:58:57.017Z,68.11
2023-03-19T09:01:24.531Z,73.18
2023-03-19T09:03:51.656Z,72.00
2023-03-19T09:06:18.707Z,68.39
2023-03-19T09:08:46.365Z,67.54
2023-03-19T09:11:14.690Z,67.18
2023-03-19T09:13:41.935Z,68.54
2023-03-19T09:16:09.081Z,68.62
2023-03-19T09:18:36.410Z,70.14
2023-03-19T09:21:03.992Z,68.43
2023-03-19T09:23:31.057Z,65.18
2023-03-19T09:25:58.125Z,67.81
2023-03-19T09:28:25.259Z,67.78
2023-03-19T09:30:52.434Z,70.29
2023-03-19T09:33:21.634Z,70.42
2023-03-19T09:35:53.492Z,66.07
2023-03-19T09:38:22.063Z,66.17
2023-03-19T09:41:03.527Z,66.24
2023-03-19T09:43:52.978Z,66.78
2023-03-19T09:46:27.776Z,64.69
2023-03-19T09:49:00.000Z,67.68
2023-03-19T09:51:36.297Z,70.52
2023-03-19T09:54:08.902Z,74.45
2023-03-19T09:56:35.993Z,74.07
2023-03-19T09:59:03.466Z,76.40
2023-03-19T10:01:37.413Z,75.42
2023-03-19T10:04:04.413Z,72.18
2023-03-19T10:06:35.693Z,71.91
2023-03-19T10:09:12.155Z,69.06
2023-03-19T10:12:01.465Z,67.03
2023-03-19T10:14:43.366Z,64.36
2023-03-19T10:17:24.414Z,66.89
2023-03-19T10:20:00.574Z,61.89
2023-03-19T10:22:36.185Z,62.03
2023-03-19T10:25:04.012Z,61.56
2023-03-19T10:27:30.967Z,64.20
2023-03-19T10:29:57.943Z,65.54
2023-03-19T10:32:38.762Z,64.36
2023-03-19T10:35:19.644Z,62.12
2023-03-19T10:37:48.961Z,61.33
2023-03-19T10:40:28.602Z,65.59
2023-03-19T10:43:07.548Z,64.27
2023-03-19T10:45:39.047Z,64.31
2023-03-19T10:48:06.638Z,64.05
2023-03-19T10:50:43.035Z,64.98
2023-03-19T10:53:13.255Z,66.94
2023-03-19T10:55:48.120Z,65.42
2023-03-19T10:58:22.766Z,65.42
2023-03-19T11:00:57.303Z,64.66
2023-03-19T11:03:53.709Z,65.65
2023-03-19T11:06:33.828Z,63.33
2023-03-19T11:09:13.399Z,59.52
2023-03-19T11:12:06.797Z,56.99
2023-03-19T11:14:38.616Z,58.05
2023-03-19T11:17:21.414Z,60.41
2023-03-19T11:19:54.728Z,62.42
2023-03-19T11:22:32.350Z,63.02
2023-03-19T11:25:14.750Z,64.52
2023-03-19T11:27:42.278Z,64.29
2023-03-19T11:30:19.557Z,63.53
2023-03-19T11:33:06.632Z,63.11
2023-03-19T11:35:42.210Z,62.99
2023-03-19T11:38:20.600Z,62.38
2023-03-19T11:41:10.376Z,62.58
2023-03-19T11:43:56.407Z,63.52
2023-03-19T11:46:57.100Z,66.76
2023-03-19T11:49:30.176Z,65.26
2023-03-19T11:52:04.422Z,61.82
2023-03-19T11:54:56.743Z,58.45
2023-03-19T11:58:00.186Z,58.32
2023-03-19T12:00:54.141Z,59.06
2023-03-19T12:03:49.698Z,58.92
2023-03-19T12:06:32.553Z,57.06
2023-03-19T12:09:09.672Z,57.04
2023-03-19T12:11:47.713Z,59.39
2023-03-19T12:14:22.807Z,59.12
2023-03-19T12:16:49.650Z,56.88
2023-03-19T12:19:40.694Z,55.21
2023-03-19T12:22:16.952Z,55.25
2023-03-19T12:25:04.546Z,52.63
2023-03-19T12:27:47.862Z,46.88
2023-03-19T12:30:32.520Z,46.46
2023-03-19T12:33:02.466Z,43.70
2023-03-19T12:35:36.457Z,49.61
2023-03-19T12:38:19.421Z,49.10
2023-03-19T12:40:58.519Z,48.07
2023-03-19T12:43:49.541Z,48.41
2023-03-19T12:46:17.967Z,47.33
2023-03-19T12:49:08.239Z,48.33
2023-03-19T12:51:40.605Z,49.25
2023-03-19T12:54:27.599Z,50.39
2023-03-19T12:56:57.398Z,53.58
2023-03-19T12:59:39.746Z,52.66
2023-03-19T13:02:26.729Z,52.84
2023-03-19T13:05:00.070Z,52.87
2023-03-19T13:07:37.796Z,46.64
2023-03-19T13:10:14.090Z,46.49
2023-03-19T13:12:41.913Z,44.43
2023-03-19T13:15:13.569Z,41.96
2023-03-19T13:18:06.289Z,38.11
2023-03-19T13:21:10.993Z,39.87
2023-03-19T13:23:41.000Z,41.94
2023-03-19T13:26:12.831Z,43.25
2023-03-19T13:29:01.789Z,43.04
2023-03-19T13:31:34.123Z,44.35
2023-03-19T13:34:08.059Z,45.97
2023-03-19T13:36:39.726Z,47.68
2023-03-19T13:39:19.788Z,43.32
2023-03-19T13:42:24.383Z,41.45
2023-03-19T13:44:57.166Z,44.53
2023-03-19T13:47:28.819Z,51.29
2023-03-19T13:50:22.506Z,53.25
2023-03-19T13:53:11.350Z,55.33
2023-03-19T13:56:12.759Z,55.92
2023-03-19T13:58:53.021Z,60.62
2023-03-19T14:01:26.164Z,60.66
2023-03-19T14:04:04.556Z,62.49
2023-03-19T14:06:34.928Z,61.54
2023-03-19T14:09:03.262Z,61.10
2023-03-19T14:11:33.834Z,63.61
2023-03-19T14:14:05.704Z,67.98
2023-03-19T14:16:37.593Z,68.70
2023-03-19T14:19:11.787Z,68.15
2023-03-19T14:21:47.159Z,67.86
2023-03-19T14:27:33.437Z,69.35
2023-03-19T14:30:17.917Z,71.19
2023-03-19T14:32:48.201Z,70.96
2023-03-19T14:35:20.415Z,71.22
2023-03-19T14:37:50.336Z,70.57
2023-03-19T14:40:19.768Z,72.01
2023-03-19T14:43:11.249Z,71.87
2023-03-19T14:45:56.891Z,71.52
2023-03-19T14:48:42.408Z,71.65
2023-03-19T14:51:28.824Z,71.44
2023-03-19T14:54:16.535Z,72.78
2023-03-19T14:56:43.642Z,73.18
2023-03-19T14:59:13.877Z,74.69
2023-03-19T15:01:44.698Z,73.82
2023-03-19T15:04:14.547Z,74.64
2023-03-19T15:06:45.019Z,76.68
2023-03-19T15:09:22.492Z,76.91
2023-03-19T15:12:21.580Z,76.69
2023-03-19T15:15:14.785Z,77.61
2023-03-19T15:17:45.267Z,76.81
2023-03-19T15:20:22.338Z,76.36
2023-03-19T15:23:05.791Z,77.39
2023-03-19T15:25:52.574Z,77.66
2023-03-19T15:28:20.200Z,76.68
2023-03-19T15:31:03.452Z,77.45
2023-03-19T15:33:41.546Z,76.58
2023-03-19T15:36:10.732Z,85.04
2023-03-19T15:38:50.481Z,89.93
2023-03-19T15:41:18.606Z,92.14
2023-03-19T15:43:45.928Z,93.73
2023-03-19T15:46:18.603Z,95.17
2023-03-19T15:48:51.080Z,96.06
2023-03-19T15:51:22.636Z,96.65
2023-03-19T15:53:50.264Z,96.34
2023-03-19T15:56:20.283Z,95.77
2023-03-19T15:58:52.020Z,94.86
2023-03-19T16:01:21.578Z,94.32
2023-03-19T16:03:57.978Z,93.59
2023-03-19T16:06:29.655Z,93.78
2023-03-19T16:09:27.248Z,94.13
2023-03-19T16:11:56.195Z,95.37
2023-03-19T16:14:26.725Z,96.86
2023-03-19T16:17:04.354Z,96.96
2023-03-19T16:19:48.112Z,98.04
2023-03-19T16:22:18.336Z,97.98
2023-03-19T16:24:47.753Z,97.93
2023-03-19T16:27:18.408Z,98.18
2023-03-19T16:29:56.130Z,99.03
2023-03-19T16:32:31.628Z,99.31
2023-03-19T16:35:20.065Z,100.00
2023-03-19T16:37:49.176Z,100.00
2023-03-19T16:40:16.798Z,100.00
2023-03-19T16:42:57.018Z,100.00
2023-03-19T16:45:29.484Z,100.00
2023-03-19T16:48:03.535Z,100.00
2023-03-19T16:50:35.196Z,100.00
2023-03-19T16:53:05.235Z,100.00
2023-03-19T16:55:36.061Z,100.00
2023-03-19T16:58:07.382Z,100.00
2023-03-19T17:00:34.792Z,100.00
2023-03-19T17:03:01.834Z,100.00
2023-03-19T17:05:29.660Z,100.00
2023-03-19T17:07:57.657Z,100.00
2023-03-19T17:10:28.158Z,100.00
2023-03-19T17:12:56.476Z,100.00
2023-03-19T17:15:35.468Z,100.00
2023-03-19T17:18:05.053Z,100.00
2023-03-19T17:20:36.196Z,100.00
2023-03-19T17:23:11.635Z,100.00
2023-03-19T17:25:38.581Z,100.00
2023-03-19T17:28:06.289Z,100.00
2023-03-19T17:30:34.260Z,100.00
2023-03-19T17:33:01.556Z,100.00
2023-03-19T17:35:28.753Z,100.00
2023-03-19T17:37:55.809Z,100.00
2023-03-19T17:40:26.909Z,100.00
2023-03-19T17:42:55.765Z,100.00
2023-03-19T17:45:29.920Z,100.00
2023-03-19T17:47:58.295Z,100.00
2023-03-19T17:50:31.837Z,100.00
2023-03-19T17:53:00.200Z,100.00
2023-03-19T17:55:29.941Z,100.00
2023-03-19T17:57:57.117Z,100.00
2023-03-19T18:00:25.576Z,100.00
2023-03-19T18:02:55.151Z,100.00
2023-03-19T18:05:25.503Z,100.00
2023-03-19T18:07:56.480Z,100.00
2023-03-19T18:10:30.510Z,100.00
2023-03-19T18:13:00.139Z,100.00
2023-03-19T18:15:33.264Z,100.00
2023-03-19T18:18:03.261Z,100.00
2023-03-19T18:20:37.276Z,100.00
2023-03-19T18:23:05.773Z,100.00
2023-03-19T18:25:35.423Z,100.00
2023-03-19T18:28:03.943Z,100.00
2023-03-19T18:30:34.142Z,100.00
2023-03-19T18:33:04.838Z,100.00
2023-03-19T18:35:40.727Z,100.00
2023-03-19T18:38:16.925Z,100.00
2023-03-19T18:40:45.748Z,100.00
2023-03-19T18:43:15.604Z,100.00
2023-03-19T18:45:45.633Z,100.00
2023-03-19T18:48:26.265Z,100.00
2023-03-19T18:50:54.949Z,100.00
2023-03-19T18:53:22.136Z,100.00
2023-03-19T18:55:50.020Z,100.00
2023-03-19T18:58:25.736Z,100.00
2023-03-19T19:00:53.554Z,100.00
2023-03-19T19:03:28.616Z,100.00
2023-03-19T19:05:56.348Z,100.00
2023-03-19T19:08:25.372Z,100.00
2023-03-19T19:10:55.807Z,100.00
2023-03-19T19:13:26.762Z,100.00
2023-03-19T19:15:54.096Z,100.00
2023-03-19T19:18:27.093Z,100.00
2023-03-19T19:20:54.936Z,100.00
2023-03-19T19:23:22.619Z,100.00
2023-03-19T19:25:55.475Z,100.00
2023-03-19T19:28:27.902Z,99.63
2023-03-19T19:30:57.570Z,99.29
2023-03-19T19:33:33.298Z,99.67
2023-03-19T19:36:00.996Z,100.00
2023-03-19T19:38:28.323Z,100.00
2023-03-19T19:40:58.471Z,100.00
2023-03-19T19:43:30.267Z,100.00
2023-03-19T19:45:58.871Z,100.00
2023-03-19T19:48:28.609Z,100.00
2023-03-19T19:50:56.454Z,100.00
2023-03-19T19:53:26.318Z,100.00
2023-03-19T19:55:53.914Z,100.00
2023-03-19T19:58:32.884Z,97.28
2023-03-19T20:01:04.324Z,99.58
2023-03-19T20:03:33.569Z,100.00
2023-03-19T20:06:01.609Z,100.00
2023-03-19T20:08:29.022Z,99.60
2023-03-19T20:10:56.903Z,99.20
2023-03-19T20:13:28.112Z,97.78
2023-03-19T20:15:57.579Z,96.93
2023-03-19T20:18:29.753Z,97.03
2023-03-19T20:20:58.172Z,98.80
2023-03-19T20:23:26.379Z,98.25
2023-03-19T20:25:55.039Z,96.74
2023-03-19T20:28:32.472Z,96.71
2023-03-19T20:31:01.200Z,97.69
2023-03-19T20:33:28.857Z,96.88
2023-03-19T20:35:56.033Z,94.91
2023-03-19T20:38:23.422Z,96.56
2023-03-19T20:40:53.357Z,96.57
2023-03-19T20:43:34.911Z,95.03
2023-03-19T20:46:04.704Z,93.59
2023-03-19T20:48:33.708Z,96.48
2023-03-19T20:51:02.595Z,100.00
2023-03-19T20:53:29.690Z,100.00
2023-03-19T20:55:57.387Z,97.76
2023-03-19T20:58:30.710Z,93.85
2023-03-19T21:00:58.810Z,92.16
2023-03-19T21:03:30.820Z,92.49
2023-03-19T21:06:07.320Z,91.93
2023-03-19T21:08:38.927Z,93.98
2023-03-19T21:11:08.993Z,93.66
2023-03-19T21:13:36.072Z,93.28
2023-03-19T21:16:03.064Z,90.90
2023-03-19T21:18:30.080Z,92.02
2023-03-19T21:20:58.057Z,95.84
2023-03-19T21:23:37.364Z,100.00
2023-03-19T21:26:16.907Z,100.00
2023-03-19T21:28:45.683Z,100.00
2023-03-19T21:31:20.700Z,100.00
2023-03-19T21:33:49.722Z,100.00
2023-03-19T21:36:17.158Z,98.39
2023-03-19T21:38:44.537Z,97.39
2023-03-19T21:41:22.585Z,99.87
2023-03-19T21:43:59.671Z,100.00
2023-03-19T21:46:28.998Z,100.00
2023-03-19T21:48:57.851Z,98.32
2023-03-19T21:51:27.068Z,96.10
2023-03-19T21:53:54.600Z,93.09
2023-03-19T21:56:33.706Z,92.18
2023-03-19T21:59:03.931Z,91.87
2023-03-19T22:01:31.167Z,90.42
2023-03-19T22:03:58.799Z,90.37
2023-03-19T22:06:26.184Z,89.55
2023-03-19T22:08:54.259Z,95.41
2023-03-19T22:11:28.901Z,99.10
2023-03-19T22:14:13.672Z,98.60
2023-03-19T22:16:40.729Z,100.00
2023-03-19T22:19:11.424Z,100.00
2023-03-19T22:21:38.618Z,100.00
2023-03-19T22:24:05.845Z,100.00
2023-03-19T22:26:38.515Z,100.00
2023-03-19T22:29:11.237Z,100.00
2023-03-19T22:31:38.321Z,100.00
2023-03-19T22:34:05.371Z,100.00
2023-03-19T22:36:32.392Z,100.00
2023-03-19T22:38:59.405Z,100.00
2023-03-19T22:41:32.469Z,100.00
2023-03-19T22:44:01.580Z,100.00
2023-03-19T22:46:29.060Z,98.08
2023-03-19T22:48:56.832Z,95.75
2023-03-19T22:51:27.580Z,95.30
2023-03-19T22:53:55.306Z,94.60
2023-03-19T22:56:23.356Z,95.13
2023-03-19T22:58:50.856Z,97.96
2023-03-19T23:01:21.614Z,100.00
2023-03-19T23:03:50.058Z,100.00
2023-03-19T23:06:29.103Z,100.00
2023-03-19T23:08:57.148Z,96.43
2023-03-19T23:11:24.494Z,93.82
2023-03-19T23:13:51.758Z,91.47
2023-03-19T23:16:24.152Z,90.70
2023-03-19T23:18:52.167Z,94.97
2023-03-19T23:21:20.847Z,96.39
2023-03-19T23:23:47.909Z,97.52
2023-03-19T23:26:23.827Z,94.27
2023-03-19T23:28:51.609Z,92.58
2023-03-19T23:31:19.188Z,91.39
2023-03-19T23:33:46.365Z,91.06
2023-03-19T23:36:13.448Z,90.47
2023-03-19T23:38:41.154Z,88.99
2023-03-19T23:41:11.238Z,89.35
2023-03-19T23:43:38.326Z,88.73
2023-03-19T23:46:05.812Z,90.79
2023-03-19T23:48:36.777Z,90.05
2023-03-19T23:51:04.009Z,89.79
2023-03-19T23:53:31.500Z,90.22
2023-03-19T23:56:03.202Z,91.20
2023-03-19T23:58:40.080Z,90.18
